Time;durP1;ratioP1;P1;durP2;ratioP2;P2;SDS_P1;SDS_P2;PMS_P1;PMS_P2;Temp;Humidity;BMP_temperature;BMP_pressure;BME280_temperature;BME280_humidity;BME280_pressure;Samples;Min_cycle;Max_cycle;Signal;HPM_P1;HPM_P2
2023/06/23 00:01:26;;;;;;;;;;;;;;;;;;5006571;28;19924;-74
2023/06/23 00:04:13;;;;;;;;;;;;;;;;;;4994570;28;19941;-73
2023/06/23 00:07:00;;;;;;;;;;;;;;;;;;5003170;28;20453;-73
2023/06/23 00:09:46;;;;;;;;;;;;;;;;;;4996695;28;19921;-73
2023/06/23 00:12:33;;;;;;;;;;;;;;;;;;5001001;28;20305;-73
2023/06/23 00:15:22;;;;;;;;;;;;;;;;;;5000313;28;19928;-74
2023/06/23 00:18:08;;;;;;;;;;;;;;;;;;5000094;28;19932;-73
2023/06/23 00:20:55;;;;;;;;;;;;;;;;;;4996807;28;20378;-73
2023/06/23 00:23:41;;;;;;;;;;;;;;;;;;5000025;28;19945;-74
2023/06/23 00:26:28;;;;;;;;;;;;;;;;;;4996172;28;19940;-74
2023/06/23 00:29:15;;;;;;;;;;;;;;;;;;5001277;28;19928;-74
2023/06/23 00:32:02;;;;;;;;;;;;;;;;;;4992290;28;19932;-74
2023/06/23 00:34:48;;;;;;;;;;;;;;;;;;5001252;28;20296;-74
2023/06/23 00:37:38;;;;;;;;;;;;;;;;;;5003902;28;19921;-74
2023/06/23 00:40:24;;;;;;;;;;;;;;;;;;5004078;28;19921;-74
2023/06/23 00:43:11;;;;;;;;;;;;;;;;;;5004598;28;20408;-74
2023/06/23 00:45:57;;;;;;;;;;;;;;;;;;4999714;28;19913;-74
2023/06/23 00:48:44;;;;;;;;;;;;;;;;;;5006862;28;19928;-73
2023/06/23 00:51:31;;;;;;;;;;;;;;;;;;4998213;28;20393;-73
2023/06/23 00:54:17;;;;;;;;;;;;;;;;;;5003678;28;20727;-73
2023/06/23 00:57:04;;;;;;;;;;;;;;;;;;5002317;28;20803;-73
2023/06/23 00:59:50;;;;;;;;;;;;;;;;;;5005961;28;19924;-73
2023/06/23 01:02:37;;;;;;;;;;;;;;;;;;5005782;28;19924;-74
2023/06/23 01:05:23;;;;;;;;;;;;;;;;;;5002913;28;20374;-73
2023/06/23 01:08:10;;;;;;;;;;;;;;;;;;5002764;28;19929;-73
2023/06/23 01:10:56;;;;;;;;;;;;;;;;;;4993263;28;19941;-73
2023/06/23 01:13:43;;;;;;;;;;;;;;;;;;5004037;28;19921;-73
2023/06/23 01:16:29;;;;;;;;;;;;;;;;;;5001393;28;19922;-73
2023/06/23 01:19:16;;;;;;;;;;;;;;;;;;4994901;28;19913;-73
2023/06/23 01:22:02;;;;;;;;;;;;;;;;;;5000908;28;19955;-73
2023/06/23 01:24:49;;;;;;;;;;;;;;;;;;5001891;28;19933;-73
2023/06/23 01:27:35;;;;;;;;;;;;;;;;;;4993609;28;20370;-73
2023/06/23 01:30:25;;;;;;;;;;;;;;;;;;5001312;28;20562;-73
2023/06/23 01:33:12;;;;;;;;;;;;;;;;;;5002509;28;19923;-72
2023/06/23 01:35:59;;;;;;;;;;;;;;;;;;5000381;28;20523;-73
2023/06/23 01:38:45;;;;;;;;;;;;;;;;;;5002125;28;19918;-73
2023/06/23 01:41:32;;;;;;;;;;;;;;;;;;5000798;28;19922;-74
2023/06/23 01:44:19;;;;;;;;;;;;;;;;;;4998171;28;19949;-75
2023/06/23 01:47:07;;;;;;;;;;;;;;;;;;4995275;28;19918;-74
2023/06/23 01:49:54;;;;;;;;;;;;;;;;;;5000029;28;19925;-73
2023/06/23 01:52:40;;;;;;;;;;;;;;;;;;4991177;28;19914;-73
2023/06/23 01:55:27;;;;;;;;;;;;;;;;;;5001203;28;19921;-73
2023/06/23 01:58:13;;;;;;;;;;;;;;;;;;5001035;28;19922;-73
2023/06/23 02:01:00;;;;;;;;;;;;;;;;;;4998635;28;20471;-74
2023/06/23 02:03:46;;;;;;;;;;;;;;;;;;5001454;28;19921;-73
2023/06/23 02:06:33;;;;;;;;;;;;;;;;;;5002421;28;19917;-73
2023/06/23 02:09:20;;;;;;;;;;;;;;;;;;4994122;28;20395;-74
2023/06/23 02:12:06;;;;;;;;;;;;;;;;;;5005335;28;19925;-73
2023/06/23 02:14:53;;;;;;;;;;;;;;;;;;4997795;28;19940;-73
2023/06/23 02:17:39;;;;;;;;;;;;;;;;;;4996454;28;20297;-73
2023/06/23 02:20:26;;;;;;;;;;;;;;;;;;5008537;28;19924;-73
2023/06/23 02:23:12;;;;;;;;;;;;;;;;;;4996187;28;20380;-73
2023/06/23 02:25:59;;;;;;;;;;;;;;;;;;4996738;28;19957;-74
2023/06/23 02:28:49;;;;;;;;;;;;;;;;;;4999655;28;20361;-74
2023/06/23 02:31:36;;;;;;;;;;;;;;;;;;5000109;28;19925;-74
2023/06/23 02:34:24;;;;;;;;;;;;;;;;;;5011327;28;19937;-72
2023/06/23 02:37:11;;;;;;;;;;;;;;;;;;4995198;28;20293;-75
2023/06/23 02:39:57;;;;;;;;;;;;;;;;;;4999854;28;19918;-75
2023/06/23 02:42:44;;;;;;;;;;;;;;;;;;4991247;28;19923;-74
2023/06/23 02:45:30;;;;;;;;;;;;;;;;;;4998307;28;19921;-75
2023/06/23 02:48:17;;;;;;;;;;;;;;;;;;4997509;28;20290;-75
2023/06/23 02:51:03;;;;;;;;;;;;;;;;;;4998407;28;19925;-75
2023/06/23 02:53:50;;;;;;;;;;;;;;;;;;5006204;28;19917;-74
2023/06/23 02:56:36;;;;;;;;;;;;;;;;;;5007704;28;20504;-75
2023/06/23 02:59:23;;;;;;;;;;;;;;;;;;4992417;28;19925;-73
2023/06/23 03:02:09;;;;;;;;;;;;;;;;;;5002690;28;20297;-74
2023/06/23 03:04:57;;;;;;;;;;;;;;;;;;4997620;28;19921;-74
2023/06/23 03:07:44;;;;;;;;;;;;;;;;;;5000990;28;20373;-74
2023/06/23 03:10:30;;;;;;;;;;;;;;;;;;4998989;28;19933;-73
2023/06/23 03:13:17;;;;;;;;;;;;;;;;;;5007622;28;19921;-73
2023/06/23 03:16:03;;;;;;;;;;;;;;;;;;5001591;28;19918;-73
2023/06/23 03:18:50;;;;;;;;;;;;;;;;;;5001387;28;19918;-73
2023/06/23 03:21:36;;;;;;;;;;;;;;;;;;4999685;28;19922;-73
2023/06/23 03:24:23;;;;;;;;;;;;;;;;;;5006425;28;19913;-73
2023/06/23 03:27:09;;;;;;;;;;;;;;;;;;5009760;28;19964;-72
2023/06/23 03:29:56;;;;;;;;;;;;;;;;;;5001468;28;19930;-73
2023/06/23 03:32:42;;;;;;;;;;;;;;;;;;5011798;28;19925;-74
2023/06/23 03:35:29;;;;;;;;;;;;;;;;;;4994622;28;19921;-74
2023/06/23 03:38:15;;;;;;;;;;;;;;;;;;5001595;28;19917;-74
2023/06/23 03:41:02;;;;;;;;;;;;;;;;;;5005521;28;19921;-74
2023/06/23 03:43:48;;;;;;;;;;;;;;;;;;5001751;28;19924;-74
2023/06/23 03:46:35;;;;;;;;;;;;;;;;;;5015453;28;19929;-75
2023/06/23 03:49:21;;;;;;;;;;;;;;;;;;5010585;28;19921;-74
2023/06/23 03:52:08;;;;;;;;;;;;;;;;;;5006329;28;19936;-74
2023/06/23 03:54:54;;;;;;;;;;;;;;;;;;5011362;28;19921;-75
2023/06/23 03:57:41;;;;;;;;;;;;;;;;;;5004469;28;19918;-75
2023/06/23 04:00:27;;;;;;;;;;;;;;;;;;5009678;28;20352;-74
2023/06/23 04:03:14;;;;;;;;;;;;;;;;;;5014250;28;19913;-75
2023/06/23 04:06:00;;;;;;;;;;;;;;;;;;5004418;28;20290;-74
2023/06/23 04:08:47;;;;;;;;;;;;;;;;;;5000286;28;19917;-74
2023/06/23 04:11:33;;;;;;;;;;;;;;;;;;5001695;28;19932;-74
2023/06/23 04:14:20;;;;;;;;;;;;;;;;;;5002195;28;19925;-74
2023/06/23 04:17:06;;;;;;;;;;;;;;;;;;5006423;28;19928;-74
2023/06/23 04:19:53;;;;;;;;;;;;;;;;;;5005506;28;19926;-74
2023/06/23 04:22:39;;;;;;;;;;;;;;;;;;5008816;28;19917;-75
2023/06/23 04:25:26;;;;;;;;;;;;;;;;;;5002686;28;20415;-74
2023/06/23 04:28:12;;;;;;;;;;;;;;;;;;5010326;28;19928;-73
2023/06/23 04:30:59;;;;;;;;;;;;;;;;;;5006378;28;19933;-74
2023/06/23 04:33:45;;;;;;;;;;;;;;;;;;5008027;28;19925;-73
2023/06/23 04:36:32;;;;;;;;;;;;;;;;;;4996856;28;19929;-74
2023/06/23 04:39:19;;;;;;;;;;;;;;;;;;4993155;28;19929;-73
2023/06/23 04:42:06;;;;;;;;;;;;;;;;;;4997926;28;19925;-73
2023/06/23 04:44:52;;;;;;;;;;;;;;;;;;4997700;28;20299;-73
2023/06/23 04:47:39;;;;;;;;;;;;;;;;;;5000687;28;19925;-74
2023/06/23 04:50:26;;;;;;;;;;;;;;;;;;5008737;28;19925;-73
2023/06/23 04:53:13;;;;;;;;;;;;;;;;;;5006986;28;19925;-73
2023/06/23 04:55:59;;;;;;;;;;;;;;;;;;4997997;28;19933;-74
2023/06/23 04:58:46;;;;;;;;;;;;;;;;;;5001647;28;20602;-74
2023/06/23 05:01:32;;;;;;;;;;;;;;;;;;5003579;28;19922;-74
2023/06/23 05:04:19;;;;;;;;;;;;;;;;;;4999860;28;20297;-73
2023/06/23 05:07:05;;;;;;;;;;;;;;;;;;5008446;28;19921;-73
2023/06/23 05:09:52;;;;;;;;;;;;;;;;;;4998082;28;19936;-73
2023/06/23 05:12:38;;;;;;;;;;;;;;;;;;4997505;28;19932;-73
2023/06/23 05:15:25;;;;;;;;;;;;;;;;;;4999600;28;20361;-72
2023/06/23 05:18:11;;;;;;;;;;;;;;;;;;4999404;28;19932;-73
2023/06/23 05:20:58;;;;;;;;;;;;;;;;;;4996408;28;20302;-73
2023/06/23 05:23:44;;;;;;;;;;;;;;;;;;4997541;28;19922;-73
2023/06/23 05:26:33;;;;;;;;;;;;;;;;;;4989137;28;20302;-71
2023/06/23 05:29:20;;;;;;;;;;;;;;;;;;4999805;28;19924;-72
2023/06/23 05:32:06;;;;;;;;;;;;;;;;;;5002968;28;19936;-73
2023/06/23 05:34:53;;;;;;;;;;;;;;;;;;5005895;28;19943;-73
2023/06/23 05:37:39;;;;;;;;;;;;;;;;;;4998267;28;19925;-74
2023/06/23 05:40:26;;;;;;;;;;;;;;;;;;5007456;28;19924;-73
2023/06/23 05:43:12;;;;;;;;;;;;;;;;;;4999906;28;19925;-72
2023/06/23 05:45:59;;;;;;;;;;;;;;;;;;5003383;28;19923;-72
2023/06/23 05:48:45;;;;;;;;;;;;;;;;;;5011339;28;19925;-73
2023/06/23 05:51:32;;;;;;;;;;;;;;;;;;5007321;28;19933;-73
2023/06/23 05:54:18;;;;;;;;;;;;;;;;;;5008129;28;20320;-72
2023/06/23 05:57:05;;;;;;;;;;;;;;;;;;4983411;28;19940;-73
2023/06/23 05:59:51;;;;;;;;;;;;;;;;;;4993939;28;20431;-73
2023/06/23 06:02:38;;;;;;;;;;;;;;;;;;4994638;28;19925;-73
2023/06/23 06:05:24;;;;;;;;;;;;;;;;;;5011244;28;19925;-73
2023/06/23 06:08:11;;;;;;;;;;;;;;;;;;5002251;28;19921;-73
2023/06/23 06:10:57;;;;;;;;;;;;;;;;;;5010749;28;19960;-73
2023/06/23 06:13:44;;;;;;;;;;;;;;;;;;4991856;28;19921;-73
2023/06/23 06:16:30;;;;;;;;;;;;;;;;;;4997975;28;19917;-72
2023/06/23 06:19:16;;;;;;;;;;;;;;;;;;5009907;28;19917;-72
2023/06/23 06:22:03;;;;;;;;;;;;;;;;;;5003311;28;19925;-72
2023/06/23 06:24:49;;;;;;;;;;;;;;;;;;4986803;28;19922;-71
2023/06/23 06:27:36;;;;;;;;;;;;;;;;;;4997247;28;19929;-72
2023/06/23 06:30:22;;;;;;;;;;;;;;;;;;5010393;28;19921;-72
2023/06/23 06:33:09;;;;;;;;;;;;;;;;;;5005660;28;20483;-73
2023/06/23 06:35:57;;;;;;;;;;;;;;;;;;4995725;28;20020;-73
2023/06/23 06:38:43;;;;;;;;;;;;;;;;;;4995214;28;20313;-74
2023/06/23 06:41:30;;;;;;;;;;;;;;;;;;5006876;28;19917;-72
2023/06/23 06:44:16;;;;;;;;;;;;;;;;;;4994867;28;19932;-73
2023/06/23 06:47:03;;;;;;;;;;;;;;;;;;5005097;28;19921;-73
2023/06/23 06:49:49;;;;;;;;;;;;;;;;;;5008494;28;19929;-73
2023/06/23 06:52:36;;;;;;;;;;;;;;;;;;5000808;28;19929;-73
2023/06/23 06:55:22;;;;;;;;;;;;;;;;;;5001460;28;19921;-73
2023/06/23 06:58:09;;;;;;;;;;;;;;;;;;5006314;28;20349;-74
2023/06/23 07:00:57;;;;;;;;;;;;;;;;;;5012498;28;19929;-73
2023/06/23 07:03:43;;;;;;;;;;;;;;;;;;5007811;28;19925;-74
2023/06/23 07:06:29;;;;;;;;;;;;;;;;;;5001377;28;19921;-73
2023/06/23 07:09:16;;;;;;;;;;;;;;;;;;5007934;28;19925;-72
2023/06/23 07:12:02;;;;;;;;;;;;;;;;;;5006368;28;19930;-73
2023/06/23 07:14:49;;;;;;;;;;;;;;;;;;5001406;28;19922;-73
2023/06/23 07:17:35;;;;;;;;;;;;;;;;;;5017725;28;20109;-73
2023/06/23 07:20:22;;;;;;;;;;;;;;;;;;5007228;28;20259;-72
2023/06/23 07:23:09;;;;;;;;;;;;;;;;;;5002726;28;19917;-72
2023/06/23 07:25:55;;;;;;;;;;;;;;;;;;5005550;28;19936;-73
2023/06/23 07:28:42;;;;;;;;;;;;;;;;;;5004496;28;19925;-74
2023/06/23 07:31:30;;;;;;;;;;;;;;;;;;5006075;28;19963;-73
2023/06/23 07:34:17;;;;;;;;;;;;;;;;;;5012364;28;19933;-72
2023/06/23 07:37:03;;;;;;;;;;;;;;;;;;5010518;28;19921;-72
2023/06/23 07:39:50;;;;;;;;;;;;;;;;;;4999942;28;19921;-73
2023/06/23 07:42:36;;;;;;;;;;;;;;;;;;5002331;28;20520;-73
2023/06/23 07:45:23;;;;;;;;;;;;;;;;;;5011237;28;20604;-73
2023/06/23 07:48:09;;;;;;;;;;;;;;;;;;5012449;28;19921;-71
2023/06/23 07:50:56;;;;;;;;;;;;;;;;;;4989973;28;19922;-72
2023/06/23 07:53:42;;;;;;;;;;;;;;;;;;5001426;28;20576;-73
2023/06/23 07:56:29;;;;;;;;;;;;;;;;;;5008213;28;20655;-72
2023/06/23 07:59:15;;;;;;;;;;;;;;;;;;5011685;28;19923;-74
2023/06/23 08:02:02;;;;;;;;;;;;;;;;;;5007420;28;20640;-72
2023/06/23 08:04:49;;;;;;;;;;;;;;;;;;4999514;28;19922;-72
2023/06/23 08:07:35;;;;;;;;;;;;;;;;;;5010112;28;19925;-73
2023/06/23 08:10:21;;;;;;;;;;;;;;;;;;5011328;28;19922;-78
2023/06/23 08:13:08;;;;;;;;;;;;;;;;;;5006679;28;19932;-72
2023/06/23 08:15:57;;;;;;;;;;;;;;;;;;5000766;28;19918;-73
2023/06/23 08:18:43;;;;;;;;;;;;;;;;;;5002979;28;19917;-72
2023/06/23 08:21:30;;;;;;;;;;;;;;;;;;5009286;28;19925;-72
2023/06/23 08:24:17;;;;;;;;;;;;;;;;;;5003785;28;19928;-73
2023/06/23 08:27:03;;;;;;;;;;;;;;;;;;5000311;28;19929;-73
2023/06/23 08:29:50;;;;;;;;;;;;;;;;;;5000016;28;19929;-73
2023/06/23 08:32:36;;;;;;;;;;;;;;;;;;4999134;28;20451;-74
2023/06/23 08:35:23;;;;;;;;;;;;;;;;;;5010382;28;19932;-73
2023/06/23 08:38:12;;;;;;;;;;;;;;;;;;5005973;28;20476;-72
2023/06/23 08:40:59;;;;;;;;;;;;;;;;;;4996137;28;19918;-72
2023/06/23 08:43:45;;;;;;;;;;;;;;;;;;4996630;28;19917;-72
2023/06/23 08:46:32;;;;;;;;;;;;;;;;;;5001341;28;19928;-72
2023/06/23 08:49:18;;;;;;;;;;;;;;;;;;5002845;28;19927;-72
2023/06/23 08:52:05;;;;;;;;;;;;;;;;;;5005966;28;19929;-72
2023/06/23 08:54:52;;;;;;;;;;;;;;;;;;5007047;28;19928;-72
2023/06/23 08:57:39;;;;;;;;;;;;;;;;;;5001044;28;19921;-73
2023/06/23 09:00:25;;;;;;;;;;;;;;;;;;5004114;28;19922;-72
2023/06/23 09:03:12;;;;;;;;;;;;;;;;;;5000963;28;19927;-72
2023/06/23 09:06:00;;;;;;;;;;;;;;;;;;5002441;28;20668;-72
2023/06/23 09:08:46;;;;;;;;;;;;;;;;;;4988279;28;19941;-74
2023/06/23 09:11:33;;;;;;;;;;;;;;;;;;5009420;28;20305;-73
2023/06/23 09:14:19;;;;;;;;;;;;;;;;;;5010919;28;19925;-73
2023/06/23 09:17:06;;;;;;;;;;;;;;;;;;5006241;28;20380;-73
2023/06/23 09:19:54;;;;;;;;;;;;;;;;;;5006888;28;20803;-73
2023/06/23 09:22:41;;;;;;;;;;;;;;;;;;5010452;28;19921;-73
2023/06/23 09:25:27;;;;;;;;;;;;;;;;;;5006561;28;19930;-76
2023/06/23 09:28:14;;;;;;;;;;;;;;;;;;5010156;28;19925;-72
2023/06/23 09:31:00;;;;;;;;;;;;;;;;;;5008237;28;19925;-71
2023/06/23 09:33:47;;;;;;;;;;;;;;;;;;5001920;28;19918;-72
2023/06/23 09:36:34;;;;;;;;;;;;;;;;;;5006232;28;19925;-82
2023/06/23 09:39:20;;;;;;;;;;;;;;;;;;4996147;28;19929;-80
2023/06/23 09:42:08;;;;;;;;;;;;;;;;;;5005697;28;19921;-80
2023/06/23 09:44:55;;;;;;;;;;;;;;;;;;4996131;28;19922;-81
2023/06/23 09:47:41;;;;;;;;;;;;;;;;;;5011606;28;19917;-81
2023/06/23 09:50:28;;;;;;;;;;;;;;;;;;5000175;28;19952;-80
2023/06/23 09:53:14;;;;;;;;;;;;;;;;;;4993891;28;19928;-80
2023/06/23 09:56:01;;;;;;;;;;;;;;;;;;5003016;28;20403;-80
2023/06/23 09:58:47;;;;;;;;;;;;;;;;;;5008224;28;19917;-80
2023/06/23 10:01:34;;;;;;;;;;;;;;;;;;5007295;28;19914;-80
2023/06/23 10:04:20;;;;;;;;;;;;;;;;;;5002613;28;19926;-81
2023/06/23 10:07:07;;;;;;;;;;;;;;;;;;5005685;28;19937;-81
2023/06/23 10:09:53;;;;;;;;;;;;;;;;;;5006800;28;19921;-79
2023/06/23 10:12:41;;;;;;;;;;;;;;;;;;5011147;28;19940;-80
2023/06/23 10:15:29;;;;;;;;;;;;;;;;;;5002627;28;19944;-80
2023/06/23 10:18:15;;;;;;;;;;;;;;;;;;4999271;28;19930;-80
2023/06/23 10:21:02;;;;;;;;;;;;;;;;;;5002825;28;19913;-80
2023/06/23 10:23:49;;;;;;;;;;;;;;;;;;4994887;28;19918;-80
2023/06/23 10:26:35;;;;;;;;;;;;;;;;;;4981917;28;20033;-80
2023/06/23 10:29:21;;;;;;;;;;;;;;;;;;4968833;28;19921;-79
2023/06/23 10:32:08;;;;;;;;;;;;;;;;;;4982340;28;20305;-80
2023/06/23 10:34:54;;;;;;;;;;;;;;;;;;4984257;28;19928;-79
2023/06/23 10:37:43;;;;;;;;;;;;;;;;;;4980895;28;19953;-79
2023/06/23 10:40:30;;;;;;;;;;;;;;;;;;4979548;28;19970;-79
2023/06/23 10:43:16;;;;;;;;;;;;;;;;;;4983262;28;19917;-80
2023/06/23 10:46:04;;;;;;;;;;;;;;;;;;4982292;28;19925;-79
2023/06/23 10:48:50;;;;;;;;;;;;;;;;;;4981021;28;19937;-80
2023/06/23 10:51:37;;;;;;;;;;;;;;;;;;4978739;28;19926;-79
2023/06/23 10:54:23;;;;;;;;;;;;;;;;;;4984803;28;19938;-79
2023/06/23 10:57:10;;;;;;;;;;;;;;;;;;4981581;28;19922;-79
2023/06/23 10:59:57;;;;;;;;;;;;;;;;;;4982166;28;20373;-79
2023/06/23 11:02:43;;;;;;;;;;;;;;;;;;4994607;28;19924;-79
2023/06/23 11:05:30;;;;;;;;;;;;;;;;;;4979138;28;19918;-79
2023/06/23 11:08:16;;;;;;;;;;;;;;;;;;4971400;28;20360;-79
2023/06/23 11:11:03;;;;;;;;;;;;;;;;;;4986828;28;19926;-79
2023/06/23 11:13:51;;;;;;;;;;;;;;;;;;4983031;28;19918;-80
2023/06/23 11:16:38;;;;;;;;;;;;;;;;;;4966458;28;19918;-79
2023/06/23 11:19:25;;;;;;;;;;;;;;;;;;4979948;28;19924;-79
2023/06/23 11:22:11;;;;;;;;;;;;;;;;;;4980956;28;19932;-80
2023/06/23 11:24:58;;;;;;;;;;;;;;;;;;4992818;28;20289;-79
2023/06/23 11:27:44;;;;;;;;;;;;;;;;;;5002708;28;19925;-79
2023/06/23 11:30:31;;;;;;;;;;;;;;;;;;5001618;28;19948;-80
2023/06/23 11:33:17;;;;;;;;;;;;;;;;;;5008415;28;19922;-80
2023/06/23 11:36:04;;;;;;;;;;;;;;;;;;5003531;28;19944;-81
2023/06/23 11:38:50;;;;;;;;;;;;;;;;;;5008731;28;19922;-79
2023/06/23 11:41:37;;;;;;;;;;;;;;;;;;5006549;28;19917;-79
2023/06/23 11:44:23;;;;;;;;;;;;;;;;;;4999127;28;19914;-80
2023/06/23 11:47:10;;;;;;;;;;;;;;;;;;5004493;28;19921;-79
2023/06/23 11:49:56;;;;;;;;;;;;;;;;;;4991536;28;27486;-79
2023/06/23 11:52:43;;;;;;;;;;;;;;;;;;5001124;28;19922;-79
2023/06/23 11:55:29;;;;;;;;;;;;;;;;;;5003874;28;20032;-79
2023/06/23 11:58:16;;;;;;;;;;;;;;;;;;5014478;28;19932;-79
2023/06/23 12:01:04;;;;;;;;;;;;;;;;;;5001768;28;19925;-79
2023/06/23 12:03:50;;;;;;;;;;;;;;;;;;5010322;28;20629;-79
2023/06/23 12:06:37;;;;;;;;;;;;;;;;;;5009693;28;19924;-79
2023/06/23 12:09:23;;;;;;;;;;;;;;;;;;5013735;28;19921;-79
2023/06/23 12:12:10;;;;;;;;;;;;;;;;;;5004789;28;19929;-79
2023/06/23 12:14:56;;;;;;;;;;;;;;;;;;4995989;28;19933;-79
2023/06/23 12:17:43;;;;;;;;;;;;;;;;;;5005626;28;20289;-79
2023/06/23 12:20:29;;;;;;;;;;;;;;;;;;5010907;28;20389;-80
2023/06/23 12:23:16;;;;;;;;;;;;;;;;;;5006040;28;19917;-79
2023/06/23 12:26:04;;;;;;;;;;;;;;;;;;4997615;28;19936;-79
2023/06/23 12:28:50;;;;;;;;;;;;;;;;;;4994110;28;19925;-79
2023/06/23 12:31:39;;;;;;;;;;;;;;;;;;5003363;28;19925;-79
2023/06/23 12:34:26;;;;;;;;;;;;;;;;;;5007206;28;19913;-80
2023/06/23 12:37:14;;;;;;;;;;;;;;;;;;5003870;28;20376;-80
2023/06/23 12:40:00;;;;;;;;;;;;;;;;;;5005993;28;19932;-80
2023/06/23 12:42:48;;;;;;;;;;;;;;;;;;5003243;28;19956;-79
2023/06/23 12:45:34;;;;;;;;;;;;;;;;;;5009349;28;19928;-80
2023/06/23 12:48:21;;;;;;;;;;;;;;;;;;5011003;28;19925;-82
2023/06/23 12:51:07;;;;;;;;;;;;;;;;;;5008116;28;19925;-81
2023/06/23 12:53:54;;;;;;;;;;;;;;;;;;5012516;28;19921;-80
2023/06/23 12:56:40;;;;;;;;;;;;;;;;;;5011094;28;19929;-80
2023/06/23 12:59:28;;;;;;;;;;;;;;;;;;5002835;28;19918;-80
2023/06/23 13:02:18;;;;;;;;;;;;;;;;;;5005659;28;19918;-80
2023/06/23 13:05:05;;;;;;;;;;;;;;;;;;5007705;28;19924;-80
2023/06/23 13:07:51;;;;;;;;;;;;;;;;;;5001671;28;19926;-80
2023/06/23 13:10:40;;;;;;;;;;;;;;;;;;5015745;28;19932;-80
2023/06/23 13:13:26;;;;;;;;;;;;;;;;;;4993880;28;19921;-80
2023/06/23 13:16:13;;;;;;;;;;;;;;;;;;4995795;28;19928;-80
2023/06/23 13:18:59;;;;;;;;;;;;;;;;;;5014428;28;19924;-80
2023/06/23 13:21:48;;;;;;;;;;;;;;;;;;5007495;28;19928;-80
2023/06/23 13:24:37;;;;;;;;;;;;;;;;;;5002154;28;20373;-81
2023/06/23 13:27:23;;;;;;;;;;;;;;;;;;5001060;28;19925;-80
2023/06/23 13:30:10;;;;;;;;;;;;;;;;;;5001258;28;19918;-80
2023/06/23 13:32:56;;;;;;;;;;;;;;;;;;4993821;28;19933;-80
2023/06/23 13:35:43;;;;;;;;;;;;;;;;;;4995973;28;20545;-80
2023/06/23 13:38:29;;;;;;;;;;;;;;;;;;5002905;28;19924;-80
2023/06/23 13:41:16;;;;;;;;;;;;;;;;;;5001479;28;19922;-80
2023/06/23 13:44:02;;;;;;;;;;;;;;;;;;5006316;28;20369;-80
2023/06/23 13:46:49;;;;;;;;;;;;;;;;;;4998044;28;19925;-80
2023/06/23 13:49:35;;;;;;;;;;;;;;;;;;5004888;28;19921;-80
2023/06/23 13:52:22;;;;;;;;;;;;;;;;;;4992397;28;19926;-80
2023/06/23 13:55:09;;;;;;;;;;;;;;;;;;5007687;28;19921;-80
2023/06/23 13:57:55;;;;;;;;;;;;;;;;;;5010021;28;20387;-80
2023/06/23 14:00:42;;;;;;;;;;;;;;;;;;5003355;28;19932;-80
2023/06/23 14:03:28;;;;;;;;;;;;;;;;;;5008380;28;19928;-79
2023/06/23 14:06:15;;;;;;;;;;;;;;;;;;4989878;28;19924;-79
2023/06/23 14:09:03;;;;;;;;;;;;;;;;;;4994527;28;19919;-79
2023/06/23 14:11:49;;;;;;;;;;;;;;;;;;5005343;28;19929;-80
2023/06/23 14:14:36;;;;;;;;;;;;;;;;;;5007119;28;19924;-80
2023/06/23 14:17:22;;;;;;;;;;;;;;;;;;5006533;28;19917;-80
2023/06/23 14:20:09;;;;;;;;;;;;;;;;;;4991922;28;19928;-80
2023/06/23 14:22:55;;;;;;;;;;;;;;;;;;5001983;28;19920;-80
2023/06/23 14:25:42;;;;;;;;;;;;;;;;;;5011805;28;19951;-80
2023/06/23 14:28:28;;;;;;;;;;;;;;;;;;5003898;28;19921;-80
2023/06/23 14:31:15;;;;;;;;;;;;;;;;;;5005501;28;19926;-80
2023/06/23 14:34:01;;;;;;;;;;;;;;;;;;5005153;28;19922;-80
2023/06/23 14:36:49;;;;;;;;;;;;;;;;;;5001962;28;19922;-79
2023/06/23 14:39:35;;;;;;;;;;;;;;;;;;5010461;28;19929;-80
2023/06/23 14:42:23;;;;;;;;;;;;;;;;;;4998465;28;20503;-80
2023/06/23 14:45:10;;;;;;;;;;;;;;;;;;5001067;28;19921;-81
2023/06/23 14:47:56;;;;;;;;;;;;;;;;;;4988983;28;19933;-79
2023/06/23 14:50:43;;;;;;;;;;;;;;;;;;5010096;28;19993;-79
2023/06/23 14:53:29;;;;;;;;;;;;;;;;;;5012154;28;19967;-80
2023/06/23 14:56:16;;;;;;;;;;;;;;;;;;5007136;28;19921;-80
2023/06/23 14:59:02;;;;;;;;;;;;;;;;;;4994472;28;19914;-80
2023/06/23 15:01:49;;;;;;;;;;;;;;;;;;5001114;28;20682;-80
2023/06/23 15:04:35;;;;;;;;;;;;;;;;;;5000859;28;19960;-80
2023/06/23 15:07:22;;;;;;;;;;;;;;;;;;5003194;28;20515;-80
2023/06/23 15:10:08;;;;;;;;;;;;;;;;;;5007245;28;19924;-80
2023/06/23 15:12:55;;;;;;;;;;;;;;;;;;4996667;28;19926;-80
2023/06/23 15:15:41;;;;;;;;;;;;;;;;;;4991204;28;19945;-80
2023/06/23 15:18:28;;;;;;;;;;;;;;;;;;5005518;28;19921;-80
2023/06/23 15:21:14;;;;;;;;;;;;;;;;;;5014329;28;19921;-80
2023/06/23 15:24:01;;;;;;;;;;;;;;;;;;5013332;28;19924;-80
2023/06/23 15:26:47;;;;;;;;;;;;;;;;;;5009278;28;19936;-80
2023/06/23 15:29:34;;;;;;;;;;;;;;;;;;4994756;28;19918;-80
2023/06/23 15:32:20;;;;;;;;;;;;;;;;;;5011293;28;19929;-80
2023/06/23 15:35:07;;;;;;;;;;;;;;;;;;4992767;28;19928;-80
2023/06/23 15:37:54;;;;;;;;;;;;;;;;;;4992806;28;19944;-80
2023/06/23 15:40:40;;;;;;;;;;;;;;;;;;4990168;28;19913;-80
2023/06/23 15:43:27;;;;;;;;;;;;;;;;;;4994408;28;19921;-80
2023/06/23 15:46:13;;;;;;;;;;;;;;;;;;4998006;28;19935;-80
2023/06/23 15:49:00;;;;;;;;;;;;;;;;;;5007359;28;19921;-78
2023/06/23 15:51:46;;;;;;;;;;;;;;;;;;5005001;28;20309;-79
2023/06/23 15:54:33;;;;;;;;;;;;;;;;;;5000628;28;19925;-79
2023/06/23 15:57:22;;;;;;;;;;;;;;;;;;4992887;28;19917;-79
2023/06/23 16:00:08;;;;;;;;;;;;;;;;;;5004107;28;19921;-80
2023/06/23 16:02:55;;;;;;;;;;;;;;;;;;5000294;28;19923;-80
2023/06/23 16:05:41;;;;;;;;;;;;;;;;;;5002636;28;20362;-80
2023/06/23 16:08:28;;;;;;;;;;;;;;;;;;5007063;28;19925;-80
2023/06/23 16:11:14;;;;;;;;;;;;;;;;;;4993460;28;19945;-79
2023/06/23 16:14:01;;;;;;;;;;;;;;;;;;5003668;28;19933;-79
2023/06/23 16:16:47;;;;;;;;;;;;;;;;;;5003119;28;19929;-80
2023/06/23 16:19:34;;;;;;;;;;;;;;;;;;5003479;28;19926;-79
2023/06/23 16:22:21;;;;;;;;;;;;;;;;;;5009429;28;19929;-80
2023/06/23 16:25:07;;;;;;;;;;;;;;;;;;5012241;28;20292;-80
2023/06/23 16:27:57;;;;;;;;;;;;;;;;;;5003051;28;20128;-80
2023/06/23 16:30:43;;;;;;;;;;;;;;;;;;5008760;28;19922;-80
2023/06/23 16:33:31;;;;;;;;;;;;;;;;;;5012763;28;19929;-79
2023/06/23 16:36:17;;;;;;;;;;;;;;;;;;5001158;28;19945;-79
2023/06/23 16:39:04;;;;;;;;;;;;;;;;;;5008011;28;19928;-80
2023/06/23 16:41:52;;;;;;;;;;;;;;;;;;4997396;28;19918;-80
2023/06/23 16:44:39;;;;;;;;;;;;;;;;;;4998892;28;20413;-79
2023/06/23 16:47:25;;;;;;;;;;;;;;;;;;5000212;28;19924;-79
2023/06/23 16:50:11;;;;;;;;;;;;;;;;;;4999131;28;19927;-80
2023/06/23 16:52:58;;;;;;;;;;;;;;;;;;5014621;28;19925;-80
2023/06/23 16:55:44;;;;;;;;;;;;;;;;;;5005422;28;20420;-80
2023/06/23 16:58:31;;;;;;;;;;;;;;;;;;5001423;28;19922;-80
2023/06/23 17:01:17;;;;;;;;;;;;;;;;;;5010341;28;19921;-79
2023/06/23 17:04:04;;;;;;;;;;;;;;;;;;5005886;28;19921;-79
2023/06/23 17:06:50;;;;;;;;;;;;;;;;;;5008233;28;20459;-79
2023/06/23 17:09:37;;;;;;;;;;;;;;;;;;5007144;28;19928;-79
2023/06/23 17:12:23;;;;;;;;;;;;;;;;;;5006225;28;19925;-79
2023/06/23 17:15:10;;;;;;;;;;;;;;;;;;5000694;28;19922;-79
2023/06/23 17:17:56;;;;;;;;;;;;;;;;;;5000307;28;19925;-79
2023/06/23 17:20:43;;;;;;;;;;;;;;;;;;5005024;28;20389;-79
2023/06/23 17:23:29;;;;;;;;;;;;;;;;;;5008563;28;19933;-80
2023/06/23 17:26:16;;;;;;;;;;;;;;;;;;5003713;28;19925;-80
2023/06/23 17:29:02;;;;;;;;;;;;;;;;;;5009870;28;19922;-80
2023/06/23 17:31:49;;;;;;;;;;;;;;;;;;4994875;28;20546;-81
2023/06/23 17:34:35;;;;;;;;;;;;;;;;;;4993769;28;19922;-79
2023/06/23 17:37:22;;;;;;;;;;;;;;;;;;5013545;28;19921;-79
2023/06/23 17:40:08;;;;;;;;;;;;;;;;;;5003347;28;19926;-80
2023/06/23 17:42:55;;;;;;;;;;;;;;;;;;5008647;28;19928;-80
2023/06/23 17:45:41;;;;;;;;;;;;;;;;;;5001636;28;19921;-80
2023/06/23 17:48:28;;;;;;;;;;;;;;;;;;4999799;28;20369;-80
2023/06/23 17:51:14;;;;;;;;;;;;;;;;;;4988863;28;19925;-80
2023/06/23 17:54:02;;;;;;;;;;;;;;;;;;5003559;28;19925;-80
2023/06/23 17:56:49;;;;;;;;;;;;;;;;;;5000762;28;19917;-80
2023/06/23 17:59:35;;;;;;;;;;;;;;;;;;4998918;28;19917;-80
2023/06/23 18:02:22;;;;;;;;;;;;;;;;;;5002309;28;19928;-79
2023/06/23 18:05:08;;;;;;;;;;;;;;;;;;5003790;28;20304;-79
2023/06/23 18:07:55;;;;;;;;;;;;;;;;;;4989098;28;19918;-79
2023/06/23 18:10:41;;;;;;;;;;;;;;;;;;4997419;28;20386;-80
2023/06/23 18:13:28;;;;;;;;;;;;;;;;;;5000549;28;19926;-80
2023/06/23 18:16:14;;;;;;;;;;;;;;;;;;5004308;28;19922;-80
2023/06/23 18:19:01;;;;;;;;;;;;;;;;;;5004913;28;19918;-80
2023/06/23 18:21:47;;;;;;;;;;;;;;;;;;5006543;28;19913;-80
2023/06/23 18:24:34;;;;;;;;;;;;;;;;;;5012052;28;20296;-80
2023/06/23 18:27:20;;;;;;;;;;;;;;;;;;5007046;28;20408;-80
2023/06/23 18:30:07;;;;;;;;;;;;;;;;;;4995392;28;19918;-80
2023/06/23 18:32:53;;;;;;;;;;;;;;;;;;5006806;28;20372;-80
2023/06/23 18:35:40;;;;;;;;;;;;;;;;;;5006866;28;19932;-79
2023/06/23 18:38:26;;;;;;;;;;;;;;;;;;4996645;28;19921;-80
2023/06/23 18:41:13;;;;;;;;;;;;;;;;;;5010395;28;19929;-83
2023/06/23 18:43:59;;;;;;;;;;;;;;;;;;5005914;28;19921;-80
2023/06/23 18:46:46;;;;;;;;;;;;;;;;;;4999336;28;20392;-80
2023/06/23 18:49:32;;;;;;;;;;;;;;;;;;4973055;28;20021;-79
2023/06/23 18:52:20;;;;;;;;;;;;;;;;;;5008282;28;19929;-80
2023/06/23 18:55:06;;;;;;;;;;;;;;;;;;5002354;28;19928;-80
2023/06/23 18:57:53;;;;;;;;;;;;;;;;;;5006499;28;19928;-80